KSVC/SVC METAR and TAF weather

Enter ICAO airport designator
Station Type Date Time Source
KSVC METAR 2020/06/03 15:35 UTC NOAA

KSVC 031535Z AUTO 12004KT 10SM CLR 27/06 A3019 RMK AO2 T02660058


Station Type Date Time Source
KSVC Decoded METAR 2020/06/03 15:35 UTC NOAA

Silver City / Grant, NM, United States (KSVC) 32-38N 108-09W
Jun 03, 2020 - 11:35 AM EDT / 2020.06.03 1535 UTC
Wind: from the ESE (120 degrees) at 5 MPH (4 KT):0
Visibility: 10 mile(s):0
Sky conditions: clear
Temperature: 79.9 F (26.6 C)
Dew Point: 42.4 F (5.8 C)
Relative Humidity: 26%
Pressure (altimeter): 30.19 in. Hg (1022 hPa)
ob: KSVC 031535Z AUTO 12004KT 10SM CLR 27/06 A3019 RMK AO2 T02660058
cycle: 15

Station Type Date Time Source
KSVC TAF UTC NOAA

Error!

Example: see airport list